Time;durP1;ratioP1;P1;durP2;ratioP2;P2;SDS_P1;SDS_P2;PMS_P1;PMS_P2;Temp;Humidity;BMP_temperature;BMP_pressure;BME280_temperature;BME280_humidity;BME280_pressure;Samples;Min_cycle;Max_cycle;Signal;HPM_P1;HPM_P2
2022/02/22 00:00:26;;;;;;;9.50;1.95;;;;;;;4.86;83.44;99552.47;5006180;28;20409;-73
2022/02/22 00:02:52;;;;;;;11.50;2.10;;;;;;;4.97;82.91;99547.25;4986748;28;20237;-74
2022/02/22 00:05:17;;;;;;;9.10;1.52;;;;;;;5.02;82.47;99548.13;5000373;28;20030;-73
2022/02/22 00:07:43;;;;;;;10.35;1.42;;;;;;;5.09;81.93;99555.13;5006671;28;20662;-73
2022/02/22 00:10:10;;;;;;;8.55;1.52;;;;;;;5.16;81.02;99572.56;5008235;28;20044;-74
2022/02/22 00:12:35;;;;;;;8.30;1.60;;;;;;;5.21;80.69;99549.91;5003189;28;20080;-73
2022/02/22 00:15:02;;;;;;;7.70;1.50;;;;;;;5.22;81.08;99554.25;5002958;28;20061;-73
2022/02/22 00:17:28;;;;;;;11.45;1.92;;;;;;;5.23;80.52;99553.38;4996539;28;20026;-73
2022/02/22 00:19:54;;;;;;;11.70;1.85;;;;;;;5.23;80.85;99563.84;5006088;28;20049;-73
2022/02/22 00:22:19;;;;;;;10.38;1.45;;;;;;;5.23;81.30;99569.06;5002840;28;20482;-73
2022/02/22 00:24:44;;;;;;;9.18;1.50;;;;;;;5.25;81.13;99579.53;5004288;28;20038;-73
2022/02/22 00:27:11;;;;;;;8.32;1.50;;;;;;;5.22;82.03;99569.94;5004632;28;20049;-73
2022/02/22 00:29:37;;;;;;;12.25;1.73;;;;;;;5.08;83.01;99571.66;5002577;28;20041;-73
2022/02/22 00:32:02;;;;;;;9.70;1.65;;;;;;;5.02;84.14;99577.78;4987515;28;20561;-73
2022/02/22 00:34:28;;;;;;;10.02;2.28;;;;;;;4.93;84.82;99587.38;5003552;28;20545;-73
2022/02/22 00:36:53;;;;;;;10.35;1.45;;;;;;;4.87;85.83;99579.50;5005554;28;20052;-73
2022/02/22 00:39:18;;;;;;;12.80;2.22;;;;;;;4.86;86.10;99590.84;5002821;28;20034;-73
2022/02/22 00:41:44;;;;;;;8.30;1.70;;;;;;;4.78;87.50;99594.31;5004917;28;20042;-73
2022/02/22 00:44:09;;;;;;;8.25;1.77;;;;;;;4.81;86.24;99591.69;4990834;28;20089;-73
2022/02/22 00:46:34;;;;;;;7.85;1.52;;;;;;;4.80;85.90;99597.78;5006008;28;20038;-74
2022/02/22 00:49:00;;;;;;;7.65;1.77;;;;;;;4.79;85.96;99610.84;5003098;28;20092;-73
2022/02/22 00:51:25;;;;;;;10.60;1.67;;;;;;;4.72;86.84;99615.22;5007938;28;20084;-73
2022/02/22 00:53:51;;;;;;;4.97;1.45;;;;;;;4.73;86.53;99619.56;5002069;28;20061;-73
2022/02/22 00:56:16;;;;;;;7.00;1.25;;;;;;;4.69;86.66;99620.44;5005152;28;20409;-73
2022/02/22 00:58:41;;;;;;;7.20;1.10;;;;;;;4.65;87.16;99613.44;5003395;28;20042;-72
2022/02/22 01:01:07;;;;;;;14.52;2.15;;;;;;;4.65;86.81;99623.88;5005733;28;20064;-73
2022/02/22 01:03:32;;;;;;;9.32;1.50;;;;;;;4.65;87.01;99625.63;5003373;28;20042;-73
2022/02/22 01:05:57;;;;;;;6.97;1.25;;;;;;;4.63;87.02;99624.75;4987092;28;20036;-73
2022/02/22 01:08:23;;;;;;;7.20;1.77;;;;;;;4.68;87.02;99636.97;4986434;28;20439;-73
2022/02/22 01:10:48;;;;;;;8.20;2.10;;;;;;;4.67;87.29;99645.69;4986903;28;20969;-73
2022/02/22 01:13:14;;;;;;;7.82;1.50;;;;;;;4.71;86.61;99634.34;5005204;28;20370;-72
2022/02/22 01:15:40;;;;;;;9.45;1.33;;;;;;;4.74;86.56;99643.94;5001671;28;20049;-73
2022/02/22 01:18:05;;;;;;;8.00;1.20;;;;;;;4.79;86.23;99647.44;5003982;28;20033;-73
2022/02/22 01:20:31;;;;;;;7.47;1.10;;;;;;;4.76;86.07;99647.44;5003092;28;20042;-73
2022/02/22 01:22:56;;;;;;;6.45;1.17;;;;;;;4.81;86.65;99645.72;5001907;28;20049;-73
2022/02/22 01:25:23;;;;;;;6.63;1.40;;;;;;;4.88;85.99;99647.50;5004325;28;20042;-73
2022/02/22 01:27:48;;;;;;;6.50;1.30;;;;;;;4.89;85.84;99654.44;5001669;28;20042;-72
2022/02/22 01:30:14;;;;;;;7.00;1.42;;;;;;;4.94;85.47;99657.94;5003358;28;20034;-73
2022/02/22 01:32:39;;;;;;;7.72;1.27;;;;;;;5.01;85.60;99664.09;5003023;28;20123;-73
2022/02/22 01:35:06;;;;;;;5.07;1.50;;;;;;;5.02;85.49;99655.38;5002223;28;20034;-73
2022/02/22 01:37:32;;;;;;;6.47;1.92;;;;;;;5.04;85.59;99664.09;5001414;28;20041;-73
2022/02/22 01:39:57;;;;;;;4.57;0.90;;;;;;;5.06;85.72;99667.59;5002067;28;20409;-73
2022/02/22 01:42:23;;;;;;;6.97;1.00;;;;;;;5.07;85.32;99663.22;5002555;28;20030;-73
2022/02/22 01:44:49;;;;;;;8.55;1.23;;;;;;;5.14;85.20;99665.84;5001369;28;20413;-73
2022/02/22 01:47:18;;;;;;;5.18;1.00;;;;;;;5.20;84.89;99665.84;4986981;28;20030;-73
2022/02/22 01:49:44;;;;;;;6.22;0.95;;;;;;;5.23;83.95;99680.69;5003194;28;20038;-73
2022/02/22 01:52:10;;;;;;;7.68;1.88;;;;;;;5.23;83.77;99675.44;4985101;28;20046;-73
2022/02/22 01:54:36;;;;;;;9.25;1.20;;;;;;;5.26;83.14;99671.09;5000153;28;20026;-74
2022/02/22 01:57:02;;;;;;;5.78;1.30;;;;;;;5.25;83.33;99678.94;4994619;28;20038;-73
2022/02/22 01:59:28;;;;;;;6.00;1.20;;;;;;;5.25;83.38;99685.06;5003107;28;20125;-73
2022/02/22 02:01:54;;;;;;;7.50;1.38;;;;;;;5.27;82.77;99688.56;5001350;28;20141;-74
2022/02/22 02:04:20;;;;;;;5.50;1.10;;;;;;;5.33;82.71;99687.69;5003396;28;20050;-73
2022/02/22 02:06:46;;;;;;;6.47;1.20;;;;;;;5.45;82.04;99690.31;5004039;28;20468;-73
2022/02/22 02:09:11;;;;;;;6.70;1.13;;;;;;;5.44;82.05;99692.94;4973140;28;20030;-73
2022/02/22 02:11:48;;;;;;;8.45;1.55;;;;;;;5.39;82.06;99706.00;4994152;28;20046;-72
2022/02/22 02:14:14;;;;;;;10.50;1.50;;;;;;;5.35;82.30;99706.03;5000595;28;20502;-73
2022/02/22 02:16:40;;;;;;;5.45;1.02;;;;;;;5.31;82.03;99709.47;5002723;28;20030;-73
2022/02/22 02:19:08;;;;;;;6.13;1.08;;;;;;;5.38;81.57;99717.34;4990422;28;20036;-73
2022/02/22 02:21:34;;;;;;;8.20;1.60;;;;;;;5.38;80.96;99729.56;5004038;28;20034;-73
2022/02/22 02:24:20;;;;;;;6.53;1.20;;;;;;;5.51;80.48;99739.19;5004072;28;20064;-72
2022/02/22 02:26:47;;;;;;;9.98;1.40;;;;;;;5.40;82.58;99733.06;5007714;28;20088;-73
2022/02/22 02:29:14;;;;;;;8.27;1.48;;;;;;;5.27;83.98;99735.66;4985017;28;20038;-74
2022/02/22 02:31:42;;;;;;;8.50;1.55;;;;;;;5.13;85.50;99729.47;4986121;28;20506;-73
2022/02/22 02:34:10;;;;;;;4.45;1.10;;;;;;;4.98;87.35;99742.53;5006421;28;20501;-73
2022/02/22 02:36:37;;;;;;;6.97;1.25;;;;;;;4.94;87.44;99756.44;5003662;28;20508;-73
2022/02/22 02:39:04;;;;;;;5.70;1.55;;;;;;;4.94;87.73;99756.44;5001688;28;20038;-73
2022/02/22 02:41:29;;;;;;;6.63;1.20;;;;;;;4.89;88.60;99760.78;5000867;28;20046;-72
2022/02/22 02:44:07;;;;;;;7.38;1.45;;;;;;;4.87;89.46;99752.91;5002112;28;20099;-74
2022/02/22 02:46:33;;;;;;;8.55;1.48;;;;;;;4.90;89.55;99759.91;4983620;28;20577;-74
2022/02/22 02:48:59;;;;;;;6.07;1.30;;;;;;;4.90;89.13;99762.53;5003049;28;20045;-74
2022/02/22 02:51:25;;;;;;;8.15;2.03;;;;;;;4.84;90.21;99756.41;5003519;28;20050;-74
2022/02/22 02:53:52;;;;;;;10.48;1.80;;;;;;;4.86;90.31;99756.41;5000854;28;20124;-74
2022/02/22 02:56:22;;;;;;;7.35;1.58;;;;;;;4.79;90.77;99766.00;4985063;28;20038;-74
2022/02/22 02:58:58;;;;;;;8.63;1.60;;;;;;;4.82;91.37;99773.84;5002955;28;20123;-73
2022/02/22 03:01:25;;;;;;;7.40;1.13;;;;;;;4.82;91.67;99771.22;5001649;28;20620;-74
2022/02/22 03:03:50;;;;;;;4.95;1.10;;;;;;;4.76;92.28;99773.78;4999445;28;20479;-74
2022/02/22 03:06:17;;;;;;;8.70;1.10;;;;;;;4.77;92.10;99769.47;5002873;28;20045;-73
2022/02/22 03:08:42;;;;;;;7.47;1.20;;;;;;;4.79;92.33;99775.53;5000761;28;20041;-73
2022/02/22 03:11:07;;;;;;;6.75;1.30;;;;;;;4.83;92.79;99786.03;5000588;28;20447;-74
2022/02/22 03:13:33;;;;;;;6.07;0.95;;;;;;;4.84;92.26;99790.38;5000243;28;20042;-74
2022/02/22 03:15:59;;;;;;;7.13;1.10;;;;;;;4.81;92.46;99795.59;4985894;28;20066;-73
2022/02/22 03:18:24;;;;;;;7.78;1.10;;;;;;;4.74;92.97;99791.22;5002480;28;20472;-74
2022/02/22 03:20:49;;;;;;;8.77;1.08;;;;;;;4.78;92.30;99792.97;5001066;28;20634;-74
2022/02/22 03:23:16;;;;;;;7.63;1.23;;;;;;;4.73;92.55;99799.06;5000536;28;20046;-73
2022/02/22 03:25:42;;;;;;;7.25;1.20;;;;;;;4.77;92.05;99796.47;5001530;28;20039;-75
2022/02/22 03:28:08;;;;;;;4.28;0.88;;;;;;;4.78;91.97;99803.44;5002663;28;20056;-74
2022/02/22 03:30:34;;;;;;;6.57;1.55;;;;;;;4.92;91.32;99803.50;5000699;28;20053;-74
2022/02/22 03:33:00;;;;;;;4.22;1.08;;;;;;;4.88;91.59;99809.59;5000478;28;20038;-74
2022/02/22 03:35:25;;;;;;;6.22;1.17;;;;;;;4.95;90.96;99810.47;5002626;28;20026;-74
2022/02/22 03:37:51;;;;;;;3.92;0.98;;;;;;;5.05;90.17;99812.28;4999746;28;20487;-74
2022/02/22 03:40:16;;;;;;;7.95;1.13;;;;;;;5.06;89.99;99819.28;5001949;28;20072;-74
2022/02/22 03:42:43;;;;;;;6.50;1.38;;;;;;;5.13;89.37;99813.19;5003995;28;20121;-74
2022/02/22 03:45:13;;;;;;;5.80;1.35;;;;;;;5.15;89.35;99818.44;5005639;28;20038;-73
2022/02/22 03:47:40;;;;;;;5.18;1.55;;;;;;;5.20;88.85;99827.19;5006425;28;20045;-73
2022/02/22 03:50:08;;;;;;;7.47;1.50;;;;;;;5.21;88.21;99839.38;5003801;28;20064;-74
2022/02/22 03:52:33;;;;;;;6.05;1.10;;;;;;;5.27;87.62;99835.06;5005247;28;20110;-74
2022/02/22 03:54:58;;;;;;;7.57;1.98;;;;;;;5.31;87.38;99854.25;5003269;28;20046;-74
2022/02/22 03:57:24;;;;;;;8.02;1.33;;;;;;;5.32;87.90;99849.88;5005898;28;20460;-74
2022/02/22 03:59:49;;;;;;;9.70;1.75;;;;;;;5.16;88.86;99862.03;5004069;28;20569;-74
2022/02/22 04:02:15;;;;;;;9.93;2.28;;;;;;;5.12;88.43;99862.91;5003897;28;20044;-74
2022/02/22 04:04:40;;;;;;;5.63;1.85;;;;;;;5.04;89.78;99855.88;5005737;28;20034;-74
2022/02/22 04:07:05;;;;;;;8.82;1.58;;;;;;;5.06;89.58;99871.59;5002977;28;20045;-73
2022/02/22 04:09:31;;;;;;;8.32;2.17;;;;;;;5.09;89.29;99871.59;5005446;28;20092;-74
2022/02/22 04:11:56;;;;;;;7.85;1.70;;;;;;;5.04;89.66;99873.31;5005165;28;20456;-73
2022/02/22 04:14:21;;;;;;;6.80;2.30;;;;;;;5.04;89.43;99915.16;5007522;28;20038;-73
2022/02/22 04:16:47;;;;;;;8.32;1.80;;;;;;;5.01;88.97;99886.38;5005808;28;20031;-74
2022/02/22 04:19:13;;;;;;;7.05;1.67;;;;;;;5.08;87.90;99900.34;5005997;28;20375;-75
2022/02/22 04:21:38;;;;;;;7.22;2.10;;;;;;;5.08;86.58;99927.38;5004049;28;20492;-75
2022/02/22 04:24:04;;;;;;;9.85;1.83;;;;;;;5.19;85.91;99911.78;5009923;28;20046;-75
2022/02/22 04:26:29;;;;;;;9.00;1.30;;;;;;;5.19;86.06;99924.84;5003028;28;20037;-75
2022/02/22 04:28:57;;;;;;;7.45;1.70;;;;;;;5.19;85.46;99928.34;5005757;28;20045;-75
2022/02/22 04:31:23;;;;;;;13.80;1.88;;;;;;;5.19;84.19;99928.34;5003259;28;20038;-76
2022/02/22 04:33:48;;;;;;;9.93;2.05;;;;;;;5.22;84.20;99928.34;5003941;28;20034;-75
2022/02/22 04:36:14;;;;;;;12.10;1.90;;;;;;;5.24;82.24;99957.16;5004723;28;20038;-75
2022/02/22 04:38:39;;;;;;;18.55;2.92;;;;;;;5.25;81.27;99953.66;5001437;28;20046;-75
2022/02/22 04:41:04;;;;;;;18.88;2.28;;;;;;;5.30;81.09;99951.06;5005771;28;20069;-75
2022/02/22 04:43:29;;;;;;;15.68;2.78;;;;;;;5.32;80.30;99951.94;5010403;28;20065;-75
2022/02/22 04:45:55;;;;;;;15.57;2.70;;;;;;;5.33;80.09;99961.56;5003498;28;20073;-75
2022/02/22 04:48:20;;;;;;;25.08;3.45;;;;;;;5.30;78.88;100008.66;5005978;28;20061;-75
2022/02/22 04:50:45;;;;;;;16.92;2.90;;;;;;;5.23;78.94;100005.97;5003562;28;20575;-75
2022/02/22 04:53:11;;;;;;;18.38;3.00;;;;;;;4.90;79.58;99976.94;5005300;28;20038;-75
2022/02/22 04:55:36;;;;;;;21.05;3.78;;;;;;;4.53;81.57;99981.84;5005578;28;20108;-75
2022/02/22 04:58:02;;;;;;;15.90;3.10;;;;;;;4.40;81.49;99988.69;5004092;28;20069;-75
2022/02/22 05:00:27;;;;;;;22.55;3.60;;;;;;;4.35;82.79;100012.19;5002986;28;20042;-74
2022/02/22 05:02:52;;;;;;;25.10;3.15;;;;;;;4.35;82.62;100009.56;5009998;28;20484;-75
2022/02/22 05:05:18;;;;;;;19.23;3.13;;;;;;;4.36;82.53;100028.72;5006694;28;20479;-76
2022/02/22 05:07:43;;;;;;;20.70;2.83;;;;;;;4.38;82.81;100035.72;5003527;28;20077;-75
2022/02/22 05:10:09;;;;;;;17.20;3.83;;;;;;;4.54;81.03;100028.03;5002527;28;20077;-76
2022/02/22 05:12:34;;;;;;;16.08;2.97;;;;;;;4.59;81.09;100028.97;4994704;28;20117;-75
2022/02/22 05:15:00;;;;;;;20.60;3.28;;;;;;;4.66;79.54;100046.44;5005616;28;20700;-78
2022/02/22 05:17:25;;;;;;;19.83;2.80;;;;;;;4.73;79.62;100034.31;5002500;28;20040;-75
2022/02/22 05:19:50;;;;;;;22.83;4.43;;;;;;;4.82;79.15;100034.38;5003564;28;20053;-75
2022/02/22 05:22:16;;;;;;;22.92;3.80;;;;;;;4.86;79.08;100048.38;5006189;28;20038;-74
2022/02/22 05:24:41;;;;;;;18.08;3.75;;;;;;;4.87;79.48;100058.84;4994888;28;20045;-75
2022/02/22 05:27:06;;;;;;;18.85;3.65;;;;;;;4.91;79.13;100060.63;5003846;28;20248;-75
2022/02/22 05:29:32;;;;;;;20.70;3.50;;;;;;;5.02;77.76;100072.06;5002620;28;20093;-75
2022/02/22 05:31:59;;;;;;;21.08;3.67;;;;;;;4.98;76.41;100082.50;5001737;28;20108;-75
2022/02/22 05:34:24;;;;;;;22.48;3.92;;;;;;;5.00;74.89;100080.75;5003119;28;20113;-75
2022/02/22 05:36:50;;;;;;;22.88;3.50;;;;;;;4.99;74.16;100065.94;5007447;28;20117;-75
2022/02/22 05:39:16;;;;;;;25.02;4.25;;;;;;;4.86;75.32;100069.31;4994452;28;20428;-75
2022/02/22 05:41:41;;;;;;;22.40;3.78;;;;;;;4.72;75.80;100104.03;5001890;28;20037;-75
2022/02/22 05:44:07;;;;;;;19.42;4.18;;;;;;;4.66;76.14;100096.09;5005735;28;20527;-75
2022/02/22 05:46:32;;;;;;;24.20;3.05;;;;;;;4.60;76.77;100103.88;5001685;28;20046;-74
2022/02/22 05:48:57;;;;;;;26.15;3.70;;;;;;;4.49;76.68;100135.13;5006440;28;20117;-75
2022/02/22 05:51:23;;;;;;;18.17;3.63;;;;;;;4.53;76.14;100112.50;5005548;28;20410;-75
2022/02/22 05:53:48;;;;;;;20.60;3.67;;;;;;;4.52;76.01;100127.31;4988557;28;20410;-75
2022/02/22 05:56:14;;;;;;;23.25;4.18;;;;;;;4.52;76.74;100134.28;4996695;28;20044;-75
2022/02/22 05:58:39;;;;;;;19.98;3.38;;;;;;;4.57;76.40;100135.22;5012347;28;20084;-75
2022/02/22 06:01:05;;;;;;;17.48;3.72;;;;;;;4.52;76.95;100134.28;5012859;28;20046;-75
2022/02/22 06:03:30;;;;;;;18.63;3.47;;;;;;;4.49;76.55;100152.56;5003690;28;20045;-75
2022/02/22 06:05:56;;;;;;;22.23;4.20;;;;;;;4.47;77.42;100162.09;5002586;28;20030;-75
2022/02/22 06:08:22;;;;;;;20.27;4.00;;;;;;;4.48;77.56;100166.47;5002183;28;20042;-75
2022/02/22 06:10:48;;;;;;;24.65;4.35;;;;;;;4.35;79.07;100171.53;4999377;28;20037;-74
2022/02/22 06:13:14;;;;;;;17.10;3.00;;;;;;;4.29;78.67;100197.56;4999853;28;20053;-75
2022/02/22 06:15:39;;;;;;;16.45;2.55;;;;;;;4.23;77.03;100194.00;4984239;28;20030;-74
2022/02/22 06:18:05;;;;;;;12.00;2.75;;;;;;;4.13;76.40;100195.59;5002292;28;20165;-74
2022/02/22 06:20:32;;;;;;;14.57;2.67;;;;;;;4.02;77.35;100224.16;5000250;28;20030;-74
2022/02/22 06:22:58;;;;;;;22.42;2.80;;;;;;;4.00;77.39;100214.56;5003944;28;20038;-75
2022/02/22 06:25:26;;;;;;;13.70;2.90;;;;;;;3.89;79.60;100225.72;4986167;28;20105;-74
2022/02/22 06:27:53;;;;;;;12.13;2.55;;;;;;;3.87;80.77;100209.13;5006508;28;20045;-74
2022/02/22 06:30:20;;;;;;;13.95;2.25;;;;;;;3.79;81.65;100213.34;5005638;28;20042;-75
2022/02/22 06:32:46;;;;;;;20.65;4.05;;;;;;;3.74;82.41;100213.28;5003538;28;20042;-74
2022/02/22 06:35:12;;;;;;;18.52;3.22;;;;;;;3.62;83.54;100214.84;5008741;28;20095;-74
2022/02/22 06:37:38;;;;;;;17.20;3.20;;;;;;;3.63;83.93;100221.78;4985519;28;20042;-74
2022/02/22 06:40:07;;;;;;;17.20;3.30;;;;;;;3.68;83.40;100233.19;4992014;28;20113;-74
2022/02/22 06:42:33;;;;;;;16.88;3.25;;;;;;;3.72;83.59;100251.56;5005006;28;20402;-74
2022/02/22 06:44:59;;;;;;;17.88;2.78;;;;;;;3.80;83.46;100241.25;5004445;28;20045;-74
2022/02/22 06:47:24;;;;;;;23.20;3.30;;;;;;;3.84;82.39;100242.16;4990202;28;20414;-74
2022/02/22 06:49:50;;;;;;;24.13;3.78;;;;;;;3.83;82.30;100259.56;5007244;28;20582;-74
2022/02/22 06:52:15;;;;;;;19.42;3.38;;;;;;;3.87;82.10;100258.72;5004229;28;20046;-74
2022/02/22 06:54:40;;;;;;;17.65;3.20;;;;;;;3.97;81.73;100258.91;5005031;28;20027;-74
2022/02/22 06:57:06;;;;;;;17.08;3.85;;;;;;;4.13;79.81;100260.91;5006348;28;20116;-74
2022/02/22 06:59:32;;;;;;;23.40;3.95;;;;;;;4.27;79.07;100254.16;5002978;28;20119;-74
2022/02/22 07:01:57;;;;;;;26.33;3.63;;;;;;;4.37;78.27;100266.47;5000640;28;20053;-74
2022/02/22 07:04:23;;;;;;;19.05;3.60;;;;;;;4.50;77.98;100262.31;5004408;28;20465;-74
2022/02/22 07:06:48;;;;;;;17.70;3.17;;;;;;;4.54;77.41;100263.25;4985361;28;20046;-74
2022/02/22 07:09:13;;;;;;;18.85;3.38;;;;;;;4.56;77.18;100270.25;5002844;28;20204;-74
2022/02/22 07:11:39;;;;;;;15.70;2.95;;;;;;;4.49;76.92;100276.25;5000005;28;20050;-74
2022/02/22 07:14:04;;;;;;;16.00;2.58;;;;;;;4.57;76.86;100269.38;5000438;28;20045;-74
2022/02/22 07:16:29;;;;;;;18.58;5.18;;;;;;;4.61;77.34;100297.34;5004335;28;20045;-74
2022/02/22 07:18:55;;;;;;;24.70;3.95;;;;;;;4.59;77.49;100285.97;5007108;28;20037;-74
2022/02/22 07:21:20;;;;;;;17.80;4.50;;;;;;;4.67;76.89;100291.31;5003593;28;20091;-74
2022/02/22 07:23:45;;;;;;;14.68;2.90;;;;;;;4.64;77.24;100283.44;4988471;28;20068;-74
2022/02/22 07:26:10;;;;;;;15.65;2.92;;;;;;;4.75;75.96;100297.53;4989513;28;20037;-74
2022/02/22 07:28:36;;;;;;;21.38;3.92;;;;;;;4.67;75.40;100316.59;5004258;28;20038;-74
2022/02/22 07:31:01;;;;;;;20.73;3.85;;;;;;;4.74;75.11;100303.63;4989105;28;20046;-74
2022/02/22 07:33:27;;;;;;;16.95;3.10;;;;;;;4.77;75.15;100302.78;4988935;28;20037;-74
2022/02/22 07:35:52;;;;;;;19.65;2.88;;;;;;;4.81;74.59;100309.81;5007235;28;20038;-75
2022/02/22 07:38:17;;;;;;;16.58;3.35;;;;;;;4.84;74.36;100330.75;5005794;28;20049;-74
2022/02/22 07:40:43;;;;;;;17.75;3.30;;;;;;;4.91;73.92;100329.13;5010843;28;20418;-74
2022/02/22 07:43:08;;;;;;;17.08;2.95;;;;;;;4.87;72.95;100341.25;5004051;28;20034;-74
2022/02/22 07:45:33;;;;;;;16.27;3.97;;;;;;;4.81;73.38;100325.50;5009771;28;20034;-74
2022/02/22 07:48:00;;;;;;;15.27;3.47;;;;;;;4.86;73.67;100326.44;5007055;28;20097;-74
2022/02/22 07:50:26;;;;;;;15.30;2.72;;;;;;;5.00;73.13;100334.44;5004104;28;20038;-74
2022/02/22 07:52:51;;;;;;;25.15;4.20;;;;;;;4.97;73.16;100337.03;5007978;28;20038;-74
2022/02/22 07:55:16;;;;;;;21.88;3.30;;;;;;;4.95;73.09;100367.50;5008696;28;20096;-74
2022/02/22 07:57:42;;;;;;;18.70;3.60;;;;;;;4.91;73.48;100353.53;5006847;28;20038;-74
2022/02/22 08:00:08;;;;;;;17.48;2.97;;;;;;;4.98;73.76;100354.50;5004207;28;20860;-74
2022/02/22 08:02:34;;;;;;;17.83;3.13;;;;;;;5.00;73.33;100358.91;5005387;28;20088;-74
2022/02/22 08:04:59;;;;;;;17.42;3.10;;;;;;;5.13;72.69;100366.88;5003098;28;20096;-74
2022/02/22 08:07:26;;;;;;;18.05;3.25;;;;;;;5.10;73.29;100375.56;5004130;28;20497;-74
2022/02/22 08:09:51;;;;;;;20.88;4.18;;;;;;;5.15;72.60;100389.59;5011479;28;20049;-74
2022/02/22 08:12:17;;;;;;;18.20;4.13;;;;;;;5.19;72.13;100390.53;5009006;28;20087;-74
2022/02/22 08:14:42;;;;;;;14.55;3.90;;;;;;;5.23;72.43;100418.47;4987870;28;20069;-74
2022/02/22 08:17:08;;;;;;;19.20;3.13;;;;;;;5.16;72.11;100391.38;5006513;28;20030;-74
2022/02/22 08:19:33;;;;;;;17.23;3.05;;;;;;;5.01;73.01;100389.41;5007348;28;20532;-74
2022/02/22 08:21:59;;;;;;;19.17;3.40;;;;;;;4.92;73.69;100393.63;5008536;28;20069;-74
2022/02/22 08:24:25;;;;;;;24.17;3.63;;;;;;;4.81;73.98;100386.50;5003351;28;20046;-74
2022/02/22 08:26:56;;;;;;;22.90;3.78;;;;;;;4.88;74.50;100394.47;5005531;28;20045;-74
2022/02/22 08:29:22;;;;;;;24.42;4.78;;;;;;;5.04;73.55;100396.44;4976311;28;20410;-74
2022/02/22 08:31:48;;;;;;;20.50;4.28;;;;;;;5.17;73.29;100397.47;5005814;28;20035;-74
2022/02/22 08:34:14;;;;;;;18.48;3.78;;;;;;;5.24;72.91;100389.75;5007015;28;20042;-74
2022/02/22 08:36:39;;;;;;;22.33;3.70;;;;;;;5.30;72.08;100409.00;5002741;28;20101;-74
2022/02/22 08:39:04;;;;;;;19.00;3.88;;;;;;;5.35;71.94;100399.47;5006285;28;20061;-74
2022/02/22 08:41:30;;;;;;;16.90;3.60;;;;;;;5.58;71.31;100408.50;5002902;28;20034;-74
2022/02/22 08:43:56;;;;;;;26.50;4.88;;;;;;;5.76;71.19;100392.09;5006477;28;20041;-74
2022/02/22 08:46:23;;;;;;;24.63;4.65;;;;;;;5.85;69.92;100414.91;4988150;28;20402;-74
2022/02/22 08:48:49;;;;;;;21.35;4.05;;;;;;;5.91;68.55;100430.66;5008550;28;20038;-74
2022/02/22 08:51:16;;;;;;;19.02;3.80;;;;;;;5.97;70.37;100420.28;5008439;28;20030;-74
2022/02/22 08:53:41;;;;;;;23.20;4.15;;;;;;;5.96;69.01;100397.59;4984685;28;20042;-74
2022/02/22 08:56:06;;;;;;;21.35;4.07;;;;;;;6.05;68.90;100434.38;5005016;28;20025;-74
2022/02/22 08:58:32;;;;;;;21.40;4.60;;;;;;;6.19;68.53;100415.28;5002828;28;20046;-74
2022/02/22 09:00:58;;;;;;;19.33;4.40;;;;;;;6.29;68.43;100412.78;5003261;28;20030;-74
2022/02/22 09:03:24;;;;;;;23.00;4.15;;;;;;;6.36;68.62;100413.69;5004040;28;20042;-74
2022/02/22 09:05:49;;;;;;;15.30;3.90;;;;;;;6.36;67.51;100425.03;4987082;28;20093;-74
2022/02/22 09:08:15;;;;;;;20.73;4.18;;;;;;;6.40;66.79;100430.34;5005681;28;20082;-74
2022/02/22 09:10:41;;;;;;;19.92;4.38;;;;;;;6.43;66.57;100441.72;4986034;28;20075;-74
2022/02/22 09:13:07;;;;;;;17.88;3.90;;;;;;;6.53;65.99;100438.31;5002956;28;20108;-74
2022/02/22 09:15:32;;;;;;;22.33;4.28;;;;;;;6.37;66.31;100436.44;5004547;28;20030;-73
2022/02/22 09:17:59;;;;;;;22.92;4.60;;;;;;;6.37;65.86;100446.91;5005068;28;20506;-74
2022/02/22 09:20:25;;;;;;;25.00;4.72;;;;;;;6.40;65.46;100419.84;5002467;28;20092;-74
2022/02/22 09:22:51;;;;;;;21.40;3.45;;;;;;;6.43;65.33;100430.38;5003461;28;20406;-74
2022/02/22 09:25:18;;;;;;;22.08;4.88;;;;;;;6.49;65.32;100430.41;5001684;28;20076;-74
2022/02/22 09:27:44;;;;;;;26.48;4.53;;;;;;;6.58;65.24;100428.75;5004638;28;20062;-74
2022/02/22 09:30:11;;;;;;;25.27;4.68;;;;;;;6.60;64.39;100434.00;5002438;28;20045;-74
2022/02/22 09:32:37;;;;;;;21.95;4.95;;;;;;;6.62;64.17;100449.75;5002107;28;20038;-74
2022/02/22 09:35:03;;;;;;;23.90;5.32;;;;;;;6.51;64.62;100461.03;5004437;28;20378;-74
2022/02/22 09:37:28;;;;;;;22.75;4.55;;;;;;;6.59;64.33;100447.97;5004283;28;20026;-74
2022/02/22 09:39:53;;;;;;;21.65;5.10;;;;;;;6.51;65.49;100455.78;5003605;28;20052;-74
2022/02/22 09:42:19;;;;;;;22.95;3.85;;;;;;;6.66;65.64;100486.50;5002565;28;20033;-74
2022/02/22 09:44:44;;;;;;;22.13;4.05;;;;;;;6.61;63.82;100463.75;5001632;28;20551;-74
2022/02/22 09:47:09;;;;;;;21.73;4.20;;;;;;;6.71;63.89;100450.72;5004032;28;20611;-74
2022/02/22 09:49:35;;;;;;;23.20;4.55;;;;;;;6.70;63.60;100466.44;4991504;28;20609;-74
2022/02/22 09:52:01;;;;;;;20.48;3.58;;;;;;;6.95;64.27;100463.16;5001868;28;20113;-74
2022/02/22 09:54:28;;;;;;;31.52;4.97;;;;;;;6.99;63.13;100459.66;5001944;28;20125;-74
2022/02/22 09:56:56;;;;;;;21.10;4.03;;;;;;;6.96;63.21;100464.88;5003962;28;20038;-74
2022/02/22 09:59:21;;;;;;;25.60;4.10;;;;;;;6.77;63.56;100469.13;5003969;28;20589;-74
2022/02/22 10:01:50;;;;;;;24.35;5.30;;;;;;;6.73;63.15;100475.22;4968692;28;20050;-73
2022/02/22 10:04:15;;;;;;;23.02;4.18;;;;;;;6.66;63.94;100490.88;5001926;28;20065;-74
2022/02/22 10:06:41;;;;;;;24.65;4.40;;;;;;;6.47;63.14;100485.47;5003082;28;20062;-73
2022/02/22 10:09:09;;;;;;;22.85;3.92;;;;;;;6.51;64.59;100470.63;5007626;28;20041;-74
2022/02/22 10:11:48;;;;;;;27.15;4.30;;;;;;;6.52;65.13;100490.72;4992506;28;20041;-74
2022/02/22 10:14:26;;;;;;;18.27;4.22;;;;;;;6.44;65.00;100485.41;5007998;28;20049;-74
2022/02/22 10:16:54;;;;;;;20.30;4.13;;;;;;;6.44;65.57;100490.66;5008704;28;20493;-73
2022/02/22 10:19:20;;;;;;;17.10;3.75;;;;;;;6.27;65.16;100498.38;5006810;28;20482;-73
2022/02/22 10:21:50;;;;;;;22.65;4.50;;;;;;;6.27;65.96;100495.75;4988338;28;20121;-73
2022/02/22 10:24:20;;;;;;;21.20;3.60;;;;;;;6.36;65.77;100506.31;5004274;28;20041;-73
2022/02/22 10:26:46;;;;;;;29.92;5.43;;;;;;;6.43;65.06;100517.75;5004148;28;20069;-73
2022/02/22 10:29:16;;;;;;;25.83;4.63;;;;;;;6.45;65.33;100500.31;5004129;28;20104;-73
2022/02/22 10:31:44;;;;;;;25.60;5.03;;;;;;;6.35;65.61;100498.44;4999772;28;20109;-73
2022/02/22 10:34:09;;;;;;;27.00;4.35;;;;;;;6.36;65.13;100508.06;5003891;28;20046;-73
2022/02/22 10:36:41;;;;;;;23.73;4.45;;;;;;;6.40;65.42;100508.97;5007767;28;20055;-73
2022/02/22 10:39:10;;;;;;;25.77;5.05;;;;;;;6.59;65.05;100505.66;5006287;28;20045;-74
2022/02/22 10:41:40;;;;;;;23.33;4.75;;;;;;;6.80;64.93;100512.84;4999824;28;20034;-74
2022/02/22 10:44:08;;;;;;;15.27;3.38;;;;;;;6.91;63.40;100518.19;5001780;28;20445;-73
2022/02/22 10:46:37;;;;;;;19.73;4.47;;;;;;;6.90;63.33;100527.81;5002662;28;20624;-74
2022/02/22 10:49:13;;;;;;;19.67;4.47;;;;;;;7.08;64.62;100520.97;4982845;28;20038;-73
2022/02/22 10:51:44;;;;;;;18.38;4.28;;;;;;;7.31;63.17;100516.78;5000113;28;20030;-73
2022/02/22 10:54:17;;;;;;;18.38;3.95;;;;;;;7.28;62.59;100535.09;5005470;28;20042;-73
2022/02/22 10:56:43;;;;;;;26.85;4.22;;;;;;;7.35;62.35;100531.66;5001983;28;20084;-73
2022/02/22 10:59:08;;;;;;;21.52;3.92;;;;;;;7.32;61.43;100529.03;5000886;28;20058;-73
2022/02/22 11:01:33;;;;;;;18.25;4.07;;;;;;;7.36;60.99;100533.44;5003369;28;20415;-73
2022/02/22 11:03:59;;;;;;;19.65;4.32;;;;;;;7.51;61.68;100526.53;5008297;28;20112;-73
2022/02/22 11:06:25;;;;;;;18.27;3.35;;;;;;;7.62;60.35;100540.59;5001671;28;20038;-74
2022/02/22 11:08:54;;;;;;;27.00;4.40;;;;;;;7.63;60.27;100548.50;5003072;28;20096;-74
2022/02/22 11:11:34;;;;;;;21.58;3.60;;;;;;;7.62;60.10;100546.75;5005161;28;20045;-74
2022/02/22 11:14:03;;;;;;;18.10;4.60;;;;;;;7.58;57.27;100586.09;5003442;28;20041;-75
2022/02/22 11:16:50;;;;;;;24.00;4.30;;;;;;;7.58;56.28;100549.34;5002963;28;20033;-74
2022/02/22 11:19:17;;;;;;;20.33;3.40;;;;;;;7.63;56.87;100553.75;4990219;28;20044;-73
2022/02/22 11:21:44;;;;;;;19.42;3.83;;;;;;;7.58;56.36;100562.47;5002894;28;20156;-74
2022/02/22 11:24:10;;;;;;;17.92;3.97;;;;;;;7.56;56.92;100572.06;5003458;28;20084;-74
2022/02/22 11:26:57;;;;;;;21.35;4.03;;;;;;;7.57;55.41;100569.47;4999395;28;20482;-74